sensor_id;sensor_type;location;lat;lon;timestamp;pressure;altitude;pressure_sealevel;temperature;humidity
72038;BME280;59900;50.788;12.904;2022-07-29T00:00:06;97690.97;;;18.69;46.64
72038;BME280;59900;50.788;12.904;2022-07-29T00:02:32;97678.47;;;18.70;47.01
72038;BME280;59900;50.788;12.904;2022-07-29T00:04:58;97679.75;;;18.67;46.65
72038;BME280;59900;50.788;12.904;2022-07-29T00:07:23;97678.72;;;18.68;47.24
72038;BME280;59900;50.788;12.904;2022-07-29T00:09:48;97679.25;;;18.70;46.98
72038;BME280;59900;50.788;12.904;2022-07-29T00:12:14;97672.91;;;18.71;46.99
72038;BME280;59900;50.788;12.904;2022-07-29T00:14:39;97677.91;;;18.68;46.91
72038;BME280;59900;50.788;12.904;2022-07-29T00:17:04;97674.91;;;18.64;46.83
72038;BME280;59900;50.788;12.904;2022-07-29T00:19:29;97672.25;;;18.64;47.44
72038;BME280;59900;50.788;12.904;2022-07-29T00:21:55;97661.84;;;18.63;47.62
72038;BME280;59900;50.788;12.904;2022-07-29T00:24:20;97655.41;;;18.59;47.82
72038;BME280;59900;50.788;12.904;2022-07-29T00:26:45;97652.66;;;18.54;48.01
72038;BME280;59900;50.788;12.904;2022-07-29T00:29:11;97649.47;;;18.52;48.74
72038;BME280;59900;50.788;12.904;2022-07-29T00:31:36;97649.69;;;18.50;48.49
72038;BME280;59900;50.788;12.904;2022-07-29T00:34:01;97638.69;;;18.46;48.64
72038;BME280;59900;50.788;12.904;2022-07-29T00:36:27;97642.97;;;18.47;48.89
72038;BME280;59900;50.788;12.904;2022-07-29T00:38:53;97642.09;;;18.42;48.56
72038;BME280;59900;50.788;12.904;2022-07-29T00:41:18;97635.41;;;18.39;48.61
72038;BME280;59900;50.788;12.904;2022-07-29T00:43:44;97632.75;;;18.39;48.42
72038;BME280;59900;50.788;12.904;2022-07-29T00:46:10;97626.06;;;18.37;48.45
72038;BME280;59900;50.788;12.904;2022-07-29T00:48:35;97622.31;;;18.38;48.71
72038;BME280;59900;50.788;12.904;2022-07-29T00:51:02;97617.81;;;18.38;48.39
72038;BME280;59900;50.788;12.904;2022-07-29T00:53:27;97617.81;;;18.38;48.94
72038;BME280;59900;50.788;12.904;2022-07-29T00:55:55;97617.00;;;18.38;48.88
72038;BME280;59900;50.788;12.904;2022-07-29T00:58:21;97612.97;;;18.35;48.22
72038;BME280;59900;50.788;12.904;2022-07-29T01:00:46;97614.03;;;18.34;48.56
72038;BME280;59900;50.788;12.904;2022-07-29T01:03:12;97612.91;;;18.30;48.80
72038;BME280;59900;50.788;12.904;2022-07-29T01:05:38;97617.34;;;18.25;49.32
72038;BME280;59900;50.788;12.904;2022-07-29T01:08:06;97619.19;;;18.24;49.41
72038;BME280;59900;50.788;12.904;2022-07-29T01:10:32;97616.53;;;18.24;49.27
72038;BME280;59900;50.788;12.904;2022-07-29T01:12:58;97614.03;;;18.18;49.25
72038;BME280;59900;50.788;12.904;2022-07-29T01:15:25;97614.50;;;18.15;49.79
72038;BME280;59900;50.788;12.904;2022-07-29T01:32:02;97612.41;;;18.00;51.14
72038;BME280;59900;50.788;12.904;2022-07-29T01:34:35;97612.19;;;18.02;51.21
72038;BME280;59900;50.788;12.904;2022-07-29T01:37:16;97613.00;;;18.02;51.29
72038;BME280;59900;50.788;12.904;2022-07-29T01:39:45;97609.75;;;18.00;51.40
72038;BME280;59900;50.788;12.904;2022-07-29T01:42:32;97603.63;;;18.00;50.97
72038;BME280;59900;50.788;12.904;2022-07-29T01:45:10;97593.25;;;17.98;50.91
72038;BME280;59900;50.788;12.904;2022-07-29T01:47:41;97602.50;;;17.96;51.24
72038;BME280;59900;50.788;12.904;2022-07-29T01:50:11;97591.28;;;17.93;50.83
72038;BME280;59900;50.788;12.904;2022-07-29T01:52:43;97598.22;;;17.95;50.91
72038;BME280;59900;50.788;12.904;2022-07-29T01:55:13;97595.81;;;17.93;51.08
72038;BME280;59900;50.788;12.904;2022-07-29T01:57:42;97589.16;;;17.90;50.89
72038;BME280;59900;50.788;12.904;2022-07-29T02:00:09;97591.81;;;17.90;51.26
72038;BME280;59900;50.788;12.904;2022-07-29T02:02:37;97600.34;;;17.92;51.61
72038;BME280;59900;50.788;12.904;2022-07-29T02:05:05;97586.97;;;17.87;51.67
72038;BME280;59900;50.788;12.904;2022-07-29T02:07:34;97573.09;;;17.85;51.51
72038;BME280;59900;50.788;12.904;2022-07-29T02:10:02;97574.16;;;17.84;51.48
72038;BME280;59900;50.788;12.904;2022-07-29T02:12:29;97579.47;;;17.84;51.48
72038;BME280;59900;50.788;12.904;2022-07-29T02:14:58;97578.41;;;17.85;51.38
72038;BME280;59900;50.788;12.904;2022-07-29T02:17:27;97575.53;;;17.87;51.38
72038;BME280;59900;50.788;12.904;2022-07-29T02:19:57;97566.47;;;17.88;51.66
72038;BME280;59900;50.788;12.904;2022-07-29T02:22:27;97564.88;;;17.87;51.80
72038;BME280;59900;50.788;12.904;2022-07-29T02:24:53;97568.56;;;17.86;51.75
72038;BME280;59900;50.788;12.904;2022-07-29T02:27:22;97568.34;;;17.87;51.72
72038;BME280;59900;50.788;12.904;2022-07-29T02:29:49;97569.38;;;17.86;51.64
72038;BME280;59900;50.788;12.904;2022-07-29T02:32:17;97570.44;;;17.85;52.09
72038;BME280;59900;50.788;12.904;2022-07-29T02:34:44;97567.91;;;17.79;51.96
72038;BME280;59900;50.788;12.904;2022-07-29T02:37:11;97575.66;;;17.80;51.89
72038;BME280;59900;50.788;12.904;2022-07-29T02:39:39;97579.13;;;17.81;52.34
72038;BME280;59900;50.788;12.904;2022-07-29T02:42:08;97576.69;;;17.79;52.02
72038;BME280;59900;50.788;12.904;2022-07-29T02:44:35;97561.34;;;17.81;52.02
72038;BME280;59900;50.788;12.904;2022-07-29T02:47:22;97566.88;;;17.80;52.55
72038;BME280;59900;50.788;12.904;2022-07-29T02:50:02;97569.31;;;17.81;52.54
72038;BME280;59900;50.788;12.904;2022-07-29T02:52:35;97561.34;;;17.81;52.30
72038;BME280;59900;50.788;12.904;2022-07-29T02:55:13;97568.84;;;17.84;52.81
72038;BME280;59900;50.788;12.904;2022-07-29T02:57:48;97561.41;;;17.86;52.61
72038;BME280;59900;50.788;12.904;2022-07-29T03:00:15;97563.53;;;17.84;52.37
72038;BME280;59900;50.788;12.904;2022-07-29T03:02:44;97560.28;;;17.82;52.71
72038;BME280;59900;50.788;12.904;2022-07-29T03:05:16;97562.59;;;17.79;52.85
72038;BME280;59900;50.788;12.904;2022-07-29T03:07:46;97570.34;;;17.80;52.59
72038;BME280;59900;50.788;12.904;2022-07-29T03:10:13;97560.28;;;17.82;53.18
72038;BME280;59900;50.788;12.904;2022-07-29T03:12:39;97563.75;;;17.83;52.84
72038;BME280;59900;50.788;12.904;2022-07-29T03:15:05;97557.88;;;17.81;52.45
72038;BME280;59900;50.788;12.904;2022-07-29T03:17:31;97554.16;;;17.82;52.84
72038;BME280;59900;50.788;12.904;2022-07-29T03:19:57;97560.03;;;17.84;53.16
72038;BME280;59900;50.788;12.904;2022-07-29T03:22:23;97563.75;;;17.83;53.13
72038;BME280;59900;50.788;12.904;2022-07-29T03:24:49;97560.53;;;17.81;53.01
72038;BME280;59900;50.788;12.904;2022-07-29T03:27:14;97556.59;;;17.83;52.96
72038;BME280;59900;50.788;12.904;2022-07-29T03:29:39;97559.56;;;17.87;53.25
72038;BME280;59900;50.788;12.904;2022-07-29T03:32:05;97554.59;;;17.90;53.43
72038;BME280;59900;50.788;12.904;2022-07-29T03:34:31;97554.31;;;17.92;53.26
72038;BME280;59900;50.788;12.904;2022-07-29T03:36:56;97549.81;;;17.92;53.45
72038;BME280;59900;50.788;12.904;2022-07-29T03:39:24;97547.97;;;17.93;53.80
72038;BME280;59900;50.788;12.904;2022-07-29T03:41:53;97551.41;;;17.93;53.81
72038;BME280;59900;50.788;12.904;2022-07-29T03:44:21;97554.66;;;17.96;53.65
72038;BME280;59900;50.788;12.904;2022-07-29T03:46:49;97565.28;;;17.96;53.78
72038;BME280;59900;50.788;12.904;2022-07-29T03:49:16;97566.09;;;17.96;53.60
72038;BME280;59900;50.788;12.904;2022-07-29T03:51:43;97557.31;;;17.96;53.75
72038;BME280;59900;50.788;12.904;2022-07-29T03:54:09;97550.94;;;17.97;53.91
72038;BME280;59900;50.788;12.904;2022-07-29T03:56:38;97559.72;;;17.97;53.58
72038;BME280;59900;50.788;12.904;2022-07-29T03:59:04;97555.47;;;17.96;54.11
72038;BME280;59900;50.788;12.904;2022-07-29T04:01:32;97557.06;;;17.97;53.68
72038;BME280;59900;50.788;12.904;2022-07-29T04:03:59;97566.97;;;18.02;53.65
72038;BME280;59900;50.788;12.904;2022-07-29T04:06:25;97557.94;;;18.03;53.42
72038;BME280;59900;50.788;12.904;2022-07-29T04:08:51;97570.75;;;18.06;53.85
72038;BME280;59900;50.788;12.904;2022-07-29T04:11:16;97564.41;;;18.07;53.94
72038;BME280;59900;50.788;12.904;2022-07-29T04:13:41;97570.25;;;18.09;53.55
72038;BME280;59900;50.788;12.904;2022-07-29T04:16:07;97566.25;;;18.06;53.45
72038;BME280;59900;50.788;12.904;2022-07-29T04:18:32;97572.84;;;18.04;53.32
72038;BME280;59900;50.788;12.904;2022-07-29T04:20:57;97569.97;;;18.05;53.60
72038;BME280;59900;50.788;12.904;2022-07-29T04:23:25;97569.72;;;18.07;53.92
72038;BME280;59900;50.788;12.904;2022-07-29T04:25:51;97568.41;;;18.09;53.92
72038;BME280;59900;50.788;12.904;2022-07-29T04:28:16;97572.22;;;18.13;54.06
72038;BME280;59900;50.788;12.904;2022-07-29T04:30:41;97564.78;;;18.15;53.87
72038;BME280;59900;50.788;12.904;2022-07-29T04:33:07;97572.34;;;18.23;54.53
72038;BME280;59900;50.788;12.904;2022-07-29T04:35:37;97568.66;;;18.24;55.24
72038;BME280;59900;50.788;12.904;2022-07-29T04:38:03;97574.78;;;18.25;54.85
72038;BME280;59900;50.788;12.904;2022-07-29T04:40:29;97569.47;;;18.25;54.56
72038;BME280;59900;50.788;12.904;2022-07-29T04:42:54;97572.94;;;18.25;54.52
72038;BME280;59900;50.788;12.904;2022-07-29T04:45:19;97571.31;;;18.24;54.44
72038;BME280;59900;50.788;12.904;2022-07-29T04:47:44;97574.28;;;18.28;54.81
72038;BME280;59900;50.788;12.904;2022-07-29T04:50:10;97566.88;;;18.30;53.98
72038;BME280;59900;50.788;12.904;2022-07-29T04:52:35;97568.56;;;18.36;54.69
72038;BME280;59900;50.788;12.904;2022-07-29T04:55:02;97563.28;;;18.41;54.55
72038;BME280;59900;50.788;12.904;2022-07-29T04:57:28;97563.00;;;18.54;54.17
72038;BME280;59900;50.788;12.904;2022-07-29T04:59:53;97563.38;;;18.63;55.00
72038;BME280;59900;50.788;12.904;2022-07-29T05:02:18;97568.75;;;18.68;54.19
72038;BME280;59900;50.788;12.904;2022-07-29T05:04:44;97566.72;;;18.75;54.62
72038;BME280;59900;50.788;12.904;2022-07-29T05:07:09;97567.09;;;18.83;54.19
72038;BME280;59900;50.788;12.904;2022-07-29T05:09:34;97571.44;;;18.89;54.33
72038;BME280;59900;50.788;12.904;2022-07-29T05:11:59;97566.97;;;18.95;54.21
72038;BME280;59900;50.788;12.904;2022-07-29T05:14:25;97568.03;;;18.94;54.47
72038;BME280;59900;50.788;12.904;2022-07-29T05:16:50;97567.53;;;18.97;54.88
72038;BME280;59900;50.788;12.904;2022-07-29T05:19:16;97569.78;;;19.05;55.20
72038;BME280;59900;50.788;12.904;2022-07-29T05:21:41;97573.78;;;19.08;54.38
72038;BME280;59900;50.788;12.904;2022-07-29T05:24:07;97572.50;;;19.10;54.48
72038;BME280;59900;50.788;12.904;2022-07-29T05:26:32;97578.13;;;19.14;55.04
72038;BME280;59900;50.788;12.904;2022-07-29T05:28:58;97577.56;;;19.12;54.50
72038;BME280;59900;50.788;12.904;2022-07-29T05:31:23;97579.22;;;19.18;54.87
72038;BME280;59900;50.788;12.904;2022-07-29T05:33:48;97575.84;;;19.22;55.06
72038;BME280;59900;50.788;12.904;2022-07-29T05:36:13;97579.34;;;19.28;54.92
72038;BME280;59900;50.788;12.904;2022-07-29T05:38:39;97575.69;;;19.34;55.42
72038;BME280;59900;50.788;12.904;2022-07-29T05:41:04;97577.13;;;19.41;55.21
72038;BME280;59900;50.788;12.904;2022-07-29T05:43:30;97579.81;;;19.46;55.17
72038;BME280;59900;50.788;12.904;2022-07-29T05:45:56;97581.22;;;19.49;55.18
72038;BME280;59900;50.788;12.904;2022-07-29T05:48:21;97582.31;;;19.53;55.26
72038;BME280;59900;50.788;12.904;2022-07-29T05:50:47;97583.66;;;19.55;54.59
72038;BME280;59900;50.788;12.904;2022-07-29T05:53:12;97579.75;;;19.63;53.97
72038;BME280;59900;50.788;12.904;2022-07-29T05:55:37;97583.00;;;19.70;53.76
72038;BME280;59900;50.788;12.904;2022-07-29T05:58:02;97578.50;;;19.76;53.34
72038;BME280;59900;50.788;12.904;2022-07-29T06:00:28;97572.44;;;19.80;53.34
72038;BME280;59900;50.788;12.904;2022-07-29T06:02:53;97579.66;;;19.85;52.62
72038;BME280;59900;50.788;12.904;2022-07-29T06:05:18;97575.44;;;19.89;53.22
72038;BME280;59900;50.788;12.904;2022-07-29T06:07:44;97572.00;;;19.93;52.51
72038;BME280;59900;50.788;12.904;2022-07-29T06:10:09;97573.91;;;19.98;52.80
72038;BME280;59900;50.788;12.904;2022-07-29T06:12:35;97569.44;;;20.08;52.27
72038;BME280;59900;50.788;12.904;2022-07-29T06:15:00;97565.53;;;20.16;52.89
72038;BME280;59900;50.788;12.904;2022-07-29T06:17:26;97572.50;;;20.22;53.14
72038;BME280;59900;50.788;12.904;2022-07-29T06:19:51;97571.00;;;20.31;52.90
72038;BME280;59900;50.788;12.904;2022-07-29T06:22:16;97572.38;;;20.39;52.24
72038;BME280;59900;50.788;12.904;2022-07-29T06:24:42;97574.84;;;20.45;52.88
72038;BME280;59900;50.788;12.904;2022-07-29T06:27:09;97583.41;;;20.52;52.79
72038;BME280;59900;50.788;12.904;2022-07-29T06:29:35;97582.94;;;20.60;54.23
72038;BME280;59900;50.788;12.904;2022-07-29T06:32:00;97589.34;;;20.64;53.81
72038;BME280;59900;50.788;12.904;2022-07-29T06:34:25;97582.69;;;20.67;52.89
72038;BME280;59900;50.788;12.904;2022-07-29T06:36:50;97585.34;;;20.67;53.93
72038;BME280;59900;50.788;12.904;2022-07-29T06:39:17;97580.56;;;20.69;53.65
72038;BME280;59900;50.788;12.904;2022-07-29T06:41:46;97578.94;;;20.63;53.24
72038;BME280;59900;50.788;12.904;2022-07-29T06:44:11;97574.44;;;20.68;54.11
72038;BME280;59900;50.788;12.904;2022-07-29T06:46:37;97576.06;;;20.75;53.61
72038;BME280;59900;50.788;12.904;2022-07-29T06:49:02;97576.63;;;20.82;53.19
72038;BME280;59900;50.788;12.904;2022-07-29T06:51:27;97582.78;;;20.87;53.57
72038;BME280;59900;50.788;12.904;2022-07-29T06:53:53;97594.84;;;20.90;52.94
72038;BME280;59900;50.788;12.904;2022-07-29T06:56:18;97589.22;;;20.91;52.66
72038;BME280;59900;50.788;12.904;2022-07-29T06:58:43;97588.19;;;20.97;51.64
72038;BME280;59900;50.788;12.904;2022-07-29T07:01:08;97587.66;;;21.00;52.25
72038;BME280;59900;50.788;12.904;2022-07-29T07:03:34;97587.44;;;21.07;52.46
72038;BME280;59900;50.788;12.904;2022-07-29T07:05:59;97588.28;;;21.17;51.19
72038;BME280;59900;50.788;12.904;2022-07-29T07:08:25;97588.06;;;21.24;51.88
72038;BME280;59900;50.788;12.904;2022-07-29T07:10:51;97582.47;;;21.31;52.36
72038;BME280;59900;50.788;12.904;2022-07-29T07:13:19;97581.13;;;21.33;51.53
72038;BME280;59900;50.788;12.904;2022-07-29T07:15:45;97583.28;;;21.36;51.24
72038;BME280;59900;50.788;12.904;2022-07-29T07:18:12;97585.16;;;21.36;51.86
72038;BME280;59900;50.788;12.904;2022-07-29T07:20:38;97585.69;;;21.38;51.80
72038;BME280;59900;50.788;12.904;2022-07-29T07:23:03;97592.38;;;21.40;51.70
72038;BME280;59900;50.788;12.904;2022-07-29T07:25:29;97584.34;;;21.35;51.46
72038;BME280;59900;50.788;12.904;2022-07-29T07:27:55;97590.22;;;21.32;50.97
72038;BME280;59900;50.788;12.904;2022-07-29T07:30:20;97586.72;;;21.32;51.81
72038;BME280;59900;50.788;12.904;2022-07-29T07:32:46;97585.97;;;21.36;51.67
72038;BME280;59900;50.788;12.904;2022-07-29T07:35:11;97579.81;;;21.36;52.23
72038;BME280;59900;50.788;12.904;2022-07-29T07:37:38;97571.78;;;21.41;51.91
72038;BME280;59900;50.788;12.904;2022-07-29T07:40:06;97565.94;;;21.54;52.22
72038;BME280;59900;50.788;12.904;2022-07-29T07:42:31;97564.84;;;21.55;51.69
72038;BME280;59900;50.788;12.904;2022-07-29T07:44:56;97571.56;;;21.62;51.21
72038;BME280;59900;50.788;12.904;2022-07-29T07:47:22;97585.75;;;21.68;51.97
72038;BME280;59900;50.788;12.904;2022-07-29T07:49:52;97591.38;;;21.76;52.27
72038;BME280;59900;50.788;12.904;2022-07-29T07:52:19;97594.31;;;21.70;50.44
72038;BME280;59900;50.788;12.904;2022-07-29T07:54:45;97593.81;;;21.78;51.26
72038;BME280;59900;50.788;12.904;2022-07-29T07:57:11;97591.66;;;21.85;50.62
72038;BME280;59900;50.788;12.904;2022-07-29T07:59:37;97592.50;;;21.91;52.36
72038;BME280;59900;50.788;12.904;2022-07-29T08:02:03;97598.94;;;21.95;51.02
72038;BME280;59900;50.788;12.904;2022-07-29T08:04:28;97596.78;;;22.02;51.52
72038;BME280;59900;50.788;12.904;2022-07-29T08:06:54;97592.78;;;22.04;51.27
72038;BME280;59900;50.788;12.904;2022-07-29T08:09:20;97588.50;;;22.03;50.96
72038;BME280;59900;50.788;12.904;2022-07-29T08:11:46;97593.31;;;22.06;51.45
72038;BME280;59900;50.788;12.904;2022-07-29T08:14:12;97586.09;;;22.07;51.44
72038;BME280;59900;50.788;12.904;2022-07-29T08:16:38;97576.19;;;22.07;51.82
72038;BME280;59900;50.788;12.904;2022-07-29T08:19:04;97594.09;;;22.02;51.34
72038;BME280;59900;50.788;12.904;2022-07-29T08:21:30;97594.38;;;22.00;51.88
72038;BME280;59900;50.788;12.904;2022-07-29T08:23:55;97589.28;;;22.04;52.30
72038;BME280;59900;50.788;12.904;2022-07-29T08:26:41;97582.63;;;22.01;50.53
72038;BME280;59900;50.788;12.904;2022-07-29T08:29:07;97580.19;;;22.00;51.42
72038;BME280;59900;50.788;12.904;2022-07-29T08:31:33;97585.25;;;21.96;50.99
72038;BME280;59900;50.788;12.904;2022-07-29T08:33:58;97584.22;;;21.97;51.16
72038;BME280;59900;50.788;12.904;2022-07-29T08:36:25;97577.78;;;21.93;51.37
72038;BME280;59900;50.788;12.904;2022-07-29T08:38:50;97581.81;;;21.96;51.02
72038;BME280;59900;50.788;12.904;2022-07-29T08:41:16;97577.22;;;21.96;51.83
72038;BME280;59900;50.788;12.904;2022-07-29T08:43:43;97577.78;;;21.98;51.30
72038;BME280;59900;50.788;12.904;2022-07-29T08:46:09;97583.38;;;22.02;51.62
72038;BME280;59900;50.788;12.904;2022-07-29T08:48:36;97576.97;;;21.98;51.67
72038;BME280;59900;50.788;12.904;2022-07-29T08:51:01;97590.63;;;21.96;51.16
72038;BME280;59900;50.788;12.904;2022-07-29T08:53:27;97585.81;;;21.98;50.73
72038;BME280;59900;50.788;12.904;2022-07-29T08:55:54;97583.13;;;22.08;51.55
72038;BME280;59900;50.788;12.904;2022-07-29T08:58:20;97574.56;;;22.16;51.38
72038;BME280;59900;50.788;12.904;2022-07-29T09:00:50;97581.25;;;22.24;51.41
72038;BME280;59900;50.788;12.904;2022-07-29T09:03:18;97577.75;;;22.39;50.93
72038;BME280;59900;50.788;12.904;2022-07-29T09:05:45;97580.16;;;22.50;51.02
72038;BME280;59900;50.788;12.904;2022-07-29T09:08:12;97587.91;;;22.57;50.92
72038;BME280;59900;50.788;12.904;2022-07-29T09:10:38;97580.41;;;22.59;49.90
72038;BME280;59900;50.788;12.904;2022-07-29T09:13:03;97581.47;;;22.58;50.39
72038;BME280;59900;50.788;12.904;2022-07-29T09:15:29;97581.47;;;22.63;50.42
72038;BME280;59900;50.788;12.904;2022-07-29T09:17:54;97586.03;;;22.67;49.53
72038;BME280;59900;50.788;12.904;2022-07-29T09:20:22;97577.97;;;22.72;49.71
72038;BME280;59900;50.788;12.904;2022-07-29T09:22:48;97579.31;;;22.80;50.01
72038;BME280;59900;50.788;12.904;2022-07-29T09:25:31;97578.22;;;22.86;49.42
72038;BME280;59900;50.788;12.904;2022-07-29T09:28:05;97576.06;;;22.88;50.19
72038;BME280;59900;50.788;12.904;2022-07-29T09:30:31;97573.34;;;22.98;49.09
72038;BME280;59900;50.788;12.904;2022-07-29T09:32:57;97569.56;;;23.09;49.15
72038;BME280;59900;50.788;12.904;2022-07-29T09:35:24;97570.03;;;23.16;49.39
72038;BME280;59900;50.788;12.904;2022-07-29T09:37:50;97567.28;;;23.31;49.23
72038;BME280;59900;50.788;12.904;2022-07-29T09:40:21;97565.09;;;23.43;48.17
72038;BME280;59900;50.788;12.904;2022-07-29T09:42:47;97555.09;;;23.59;48.32
72038;BME280;59900;50.788;12.904;2022-07-29T09:45:26;97556.38;;;23.67;48.53
72038;BME280;59900;50.788;12.904;2022-07-29T09:47:51;97550.94;;;23.77;47.94
72038;BME280;59900;50.788;12.904;2022-07-29T09:50:17;97539.03;;;23.88;47.52
72038;BME280;59900;50.788;12.904;2022-07-29T09:52:50;97549.16;;;23.96;47.20
72038;BME280;59900;50.788;12.904;2022-07-29T09:55:16;97540.75;;;24.08;47.01
72038;BME280;59900;50.788;12.904;2022-07-29T09:57:42;97543.44;;;24.13;45.95
72038;BME280;59900;50.788;12.904;2022-07-29T10:00:14;97540.41;;;24.19;46.35
72038;BME280;59900;50.788;12.904;2022-07-29T10:02:42;97534.44;;;24.27;45.91
72038;BME280;59900;50.788;12.904;2022-07-29T10:05:19;97531.38;;;24.39;45.51
72038;BME280;59900;50.788;12.904;2022-07-29T10:07:53;97533.91;;;24.54;45.22
72038;BME280;59900;50.788;12.904;2022-07-29T10:10:44;97531.31;;;24.68;44.82
72038;BME280;59900;50.788;12.904;2022-07-29T10:13:12;97527.50;;;24.74;44.71
72038;BME280;59900;50.788;12.904;2022-07-29T10:15:40;97525.81;;;24.78;43.75
72038;BME280;59900;50.788;12.904;2022-07-29T10:18:11;97530.38;;;24.82;44.35
72038;BME280;59900;50.788;12.904;2022-07-29T10:20:37;97523.53;;;24.90;45.29
72038;BME280;59900;50.788;12.904;2022-07-29T10:23:03;97520.81;;;24.95;44.89
72038;BME280;59900;50.788;12.904;2022-07-29T10:25:29;97523.09;;;25.06;45.16
72038;BME280;59900;50.788;12.904;2022-07-29T10:27:55;97517.56;;;24.98;41.55
72038;BME280;59900;50.788;12.904;2022-07-29T10:30:22;97527.84;;;24.91;42.40
72038;BME280;59900;50.788;12.904;2022-07-29T10:33:29;97522.41;;;24.96;43.32
72038;BME280;59900;50.788;12.904;2022-07-29T10:36:30;97522.19;;;25.11;43.41
72038;BME280;59900;50.788;12.904;2022-07-29T10:39:05;97510.53;;;25.21;43.58
72038;BME280;59900;50.788;12.904;2022-07-29T10:41:52;97519.69;;;25.38;41.77
72038;BME280;59900;50.788;12.904;2022-07-29T10:44:22;97513.22;;;25.58;42.81
72038;BME280;59900;50.788;12.904;2022-07-29T10:46:49;97512.84;;;25.65;41.75
72038;BME280;59900;50.788;12.904;2022-07-29T10:52:06;97511.94;;;25.88;41.14
72038;BME280;59900;50.788;12.904;2022-07-29T10:59:41;97507.50;;;26.10;41.65
72038;BME280;59900;50.788;12.904;2022-07-29T11:04:59;97507.72;;;26.14;41.22
72038;BME280;59900;50.788;12.904;2022-07-29T11:07:26;97510.47;;;26.28;41.04
72038;BME280;59900;50.788;12.904;2022-07-29T11:15:04;97506.63;;;26.47;40.12
72038;BME280;59900;50.788;12.904;2022-07-29T11:20:37;97502.00;;;26.34;39.52
72038;BME280;59900;50.788;12.904;2022-07-29T11:31:16;97498.81;;;26.46;41.29
72038;BME280;59900;50.788;12.904;2022-07-29T11:33:44;97491.41;;;26.51;40.13
72038;BME280;59900;50.788;12.904;2022-07-29T11:36:14;97494.72;;;26.62;40.13
72038;BME280;59900;50.788;12.904;2022-07-29T11:38:40;97489.44;;;26.70;40.86
72038;BME280;59900;50.788;12.904;2022-07-29T11:41:25;97486.44;;;26.72;39.60
72038;BME280;59900;50.788;12.904;2022-07-29T11:43:58;97487.44;;;26.76;41.33
72038;BME280;59900;50.788;12.904;2022-07-29T11:46:50;97490.44;;;26.88;40.14
72038;BME280;59900;50.788;12.904;2022-07-29T11:49:26;97478.66;;;26.84;39.53
72038;BME280;59900;50.788;12.904;2022-07-29T11:51:52;97487.75;;;26.88;39.75
72038;BME280;59900;50.788;12.904;2022-07-29T11:54:24;97484.13;;;26.93;40.18
72038;BME280;59900;50.788;12.904;2022-07-29T11:56:51;97472.66;;;26.87;39.35
72038;BME280;59900;50.788;12.904;2022-07-29T11:59:17;97475.84;;;26.89;39.73
72038;BME280;59900;50.788;12.904;2022-07-29T12:01:57;97475.94;;;26.98;40.01
72038;BME280;59900;50.788;12.904;2022-07-29T12:04:23;97472.03;;;27.04;39.37
72038;BME280;59900;50.788;12.904;2022-07-29T12:06:53;97473.94;;;27.03;39.01
72038;BME280;59900;50.788;12.904;2022-07-29T12:09:19;97477.59;;;27.21;40.41
72038;BME280;59900;50.788;12.904;2022-07-29T12:11:46;97473.34;;;27.42;39.81
72038;BME280;59900;50.788;12.904;2022-07-29T12:14:27;97470.25;;;27.71;38.39
72038;BME280;59900;50.788;12.904;2022-07-29T12:16:53;97470.22;;;27.93;38.81
72038;BME280;59900;50.788;12.904;2022-07-29T12:19:18;97470.09;;;28.20;37.75
72038;BME280;59900;50.788;12.904;2022-07-29T12:21:47;97464.09;;;28.32;37.48
72038;BME280;59900;50.788;12.904;2022-07-29T12:24:13;97462.50;;;28.31;36.72
72038;BME280;59900;50.788;12.904;2022-07-29T12:26:55;97466.19;;;28.35;36.35
72038;BME280;59900;50.788;12.904;2022-07-29T12:29:21;97460.41;;;28.28;37.53
72038;BME280;59900;50.788;12.904;2022-07-29T12:31:54;97462.72;;;28.52;36.30
72038;BME280;59900;50.788;12.904;2022-07-29T12:34:22;97465.34;;;28.65;35.96
72038;BME280;59900;50.788;12.904;2022-07-29T12:36:48;97464.91;;;28.80;35.55
72038;BME280;59900;50.788;12.904;2022-07-29T12:39:16;97470.06;;;29.08;35.67
72038;BME280;59900;50.788;12.904;2022-07-29T12:41:42;97468.34;;;29.46;35.28
72038;BME280;59900;50.788;12.904;2022-07-29T12:44:07;97466.13;;;29.48;34.65
72038;BME280;59900;50.788;12.904;2022-07-29T12:46:33;97463.75;;;29.38;34.96
72038;BME280;59900;50.788;12.904;2022-07-29T12:48:58;97456.09;;;29.31;36.06
72038;BME280;59900;50.788;12.904;2022-07-29T12:51:31;97444.72;;;29.12;35.54
72038;BME280;59900;50.788;12.904;2022-07-29T12:54:13;97440.78;;;29.27;34.97
72038;BME280;59900;50.788;12.904;2022-07-29T12:56:44;97454.03;;;29.37;34.59
72038;BME280;59900;50.788;12.904;2022-07-29T12:59:21;97452.56;;;29.65;34.66
72038;BME280;59900;50.788;12.904;2022-07-29T13:01:49;97444.69;;;30.07;33.92
72038;BME280;59900;50.788;12.904;2022-07-29T13:04:29;97442.94;;;30.11;33.71
72038;BME280;59900;50.788;12.904;2022-07-29T13:07:03;97448.88;;;30.42;33.20
72038;BME280;59900;50.788;12.904;2022-07-29T13:09:44;97452.41;;;30.72;33.20
72038;BME280;59900;50.788;12.904;2022-07-29T13:12:13;97449.44;;;30.85;32.64
72038;BME280;59900;50.788;12.904;2022-07-29T13:14:44;97449.97;;;30.49;32.46
72038;BME280;59900;50.788;12.904;2022-07-29T13:17:15;97454.34;;;30.25;34.38
72038;BME280;59900;50.788;12.904;2022-07-29T13:19:49;97460.69;;;29.57;32.96
72038;BME280;59900;50.788;12.904;2022-07-29T13:22:17;97461.31;;;29.11;34.80
72038;BME280;59900;50.788;12.904;2022-07-29T13:27:22;97449.19;;;28.43;35.41
72038;BME280;59900;50.788;12.904;2022-07-29T13:29:48;97453.22;;;28.15;34.92
72038;BME280;59900;50.788;12.904;2022-07-29T13:32:16;97452.59;;;27.96;35.50
72038;BME280;59900;50.788;12.904;2022-07-29T13:34:41;97443.63;;;27.87;37.04
72038;BME280;59900;50.788;12.904;2022-07-29T13:37:07;97443.88;;;27.68;36.73